sensor_id;sensor_type;location;lat;lon;timestamp;temperature;humidity
13652;DHT22;6899;51.546;6.912;2023-04-06T00:01:08;0.60;99.90
13652;DHT22;6899;51.546;6.912;2023-04-06T00:03:36;0.60;99.90
13652;DHT22;6899;51.546;6.912;2023-04-06T00:06:04;0.60;99.90
13652;DHT22;6899;51.546;6.912;2023-04-06T00:08:30;0.60;99.90
13652;DHT22;6899;51.546;6.912;2023-04-06T00:10:57;0.60;99.90
13652;DHT22;6899;51.546;6.912;2023-04-06T00:13:24;0.50;99.90
13652;DHT22;6899;51.546;6.912;2023-04-06T00:15:51;0.40;99.90
13652;DHT22;6899;51.546;6.912;2023-04-06T00:18:18;0.20;99.90
13652;DHT22;6899;51.546;6.912;2023-04-06T00:20:48;0.00;99.90
13652;DHT22;6899;51.546;6.912;2023-04-06T00:23:16;-0.10;99.90
13652;DHT22;6899;51.546;6.912;2023-04-06T00:25:43;0.10;99.90
13652;DHT22;6899;51.546;6.912;2023-04-06T00:28:10;0.20;99.90
13652;DHT22;6899;51.546;6.912;2023-04-06T00:30:37;0.20;99.90
13652;DHT22;6899;51.546;6.912;2023-04-06T00:33:04;0.30;99.90
13652;DHT22;6899;51.546;6.912;2023-04-06T00:35:30;0.20;99.90
13652;DHT22;6899;51.546;6.912;2023-04-06T00:37:59;0.20;99.90
13652;DHT22;6899;51.546;6.912;2023-04-06T00:40:26;0.20;99.90
13652;DHT22;6899;51.546;6.912;2023-04-06T00:42:54;0.20;99.90
13652;DHT22;6899;51.546;6.912;2023-04-06T00:45:20;0.20;99.90
13652;DHT22;6899;51.546;6.912;2023-04-06T00:47:47;0.10;99.90
13652;DHT22;6899;51.546;6.912;2023-04-06T00:50:14;0.10;99.90
13652;DHT22;6899;51.546;6.912;2023-04-06T00:52:41;0.00;99.90
13652;DHT22;6899;51.546;6.912;2023-04-06T00:55:10;0.10;99.90
13652;DHT22;6899;51.546;6.912;2023-04-06T00:57:37;0.10;99.90
13652;DHT22;6899;51.546;6.912;2023-04-06T01:00:05;0.20;99.90
13652;DHT22;6899;51.546;6.912;2023-04-06T01:02:35;0.10;99.90
13652;DHT22;6899;51.546;6.912;2023-04-06T01:05:02;0.00;99.90
13652;DHT22;6899;51.546;6.912;2023-04-06T01:07:29;0.00;99.90
13652;DHT22;6899;51.546;6.912;2023-04-06T01:09:56;0.00;99.90
13652;DHT22;6899;51.546;6.912;2023-04-06T01:12:25;0.00;99.90
13652;DHT22;6899;51.546;6.912;2023-04-06T01:14:52;0.10;99.90
13652;DHT22;6899;51.546;6.912;2023-04-06T01:17:18;0.10;99.90
13652;DHT22;6899;51.546;6.912;2023-04-06T01:19:45;0.10;99.90
13652;DHT22;6899;51.546;6.912;2023-04-06T01:22:16;0.00;99.90
13652;DHT22;6899;51.546;6.912;2023-04-06T01:24:44;-0.10;99.90
13652;DHT22;6899;51.546;6.912;2023-04-06T01:27:11;-0.10;99.90
13652;DHT22;6899;51.546;6.912;2023-04-06T01:29:38;-0.20;99.90
13652;DHT22;6899;51.546;6.912;2023-04-06T01:32:07;-0.20;99.90
13652;DHT22;6899;51.546;6.912;2023-04-06T01:34:34;-0.30;99.90
13652;DHT22;6899;51.546;6.912;2023-04-06T01:37:01;-0.30;99.90
13652;DHT22;6899;51.546;6.912;2023-04-06T01:39:30;-0.30;99.90
13652;DHT22;6899;51.546;6.912;2023-04-06T01:41:57;-0.20;99.90
13652;DHT22;6899;51.546;6.912;2023-04-06T01:44:23;-0.20;99.90
13652;DHT22;6899;51.546;6.912;2023-04-06T01:46:50;-0.30;99.90
13652;DHT22;6899;51.546;6.912;2023-04-06T01:49:17;-0.30;99.90
13652;DHT22;6899;51.546;6.912;2023-04-06T01:51:44;-0.30;99.90
13652;DHT22;6899;51.546;6.912;2023-04-06T01:54:11;-0.20;99.90
13652;DHT22;6899;51.546;6.912;2023-04-06T01:56:42;-0.20;99.90
13652;DHT22;6899;51.546;6.912;2023-04-06T01:59:09;-0.20;99.90
13652;DHT22;6899;51.546;6.912;2023-04-06T02:01:36;-0.30;99.90
13652;DHT22;6899;51.546;6.912;2023-04-06T02:04:02;-0.20;99.90
13652;DHT22;6899;51.546;6.912;2023-04-06T02:06:29;-0.20;99.90
13652;DHT22;6899;51.546;6.912;2023-04-06T02:08:56;-0.30;99.90
13652;DHT22;6899;51.546;6.912;2023-04-06T02:11:23;-0.30;99.90
13652;DHT22;6899;51.546;6.912;2023-04-06T02:13:51;-0.30;99.90
13652;DHT22;6899;51.546;6.912;2023-04-06T02:16:18;-0.30;99.90
13652;DHT22;6899;51.546;6.912;2023-04-06T02:18:45;-0.40;99.90
13652;DHT22;6899;51.546;6.912;2023-04-06T02:21:12;-0.40;99.90
13652;DHT22;6899;51.546;6.912;2023-04-06T02:23:39;-0.40;99.90
13652;DHT22;6899;51.546;6.912;2023-04-06T02:26:06;-0.50;99.90
13652;DHT22;6899;51.546;6.912;2023-04-06T02:28:33;-0.40;99.90
13652;DHT22;6899;51.546;6.912;2023-04-06T02:31:01;-0.40;99.90
13652;DHT22;6899;51.546;6.912;2023-04-06T02:33:28;-0.40;99.90
13652;DHT22;6899;51.546;6.912;2023-04-06T02:35:55;-0.40;99.90
13652;DHT22;6899;51.546;6.912;2023-04-06T02:38:22;-0.40;99.90
13652;DHT22;6899;51.546;6.912;2023-04-06T02:40:48;-0.40;99.90
13652;DHT22;6899;51.546;6.912;2023-04-06T02:43:16;-0.50;99.90
13652;DHT22;6899;51.546;6.912;2023-04-06T02:45:42;-0.50;99.90
13652;DHT22;6899;51.546;6.912;2023-04-06T02:48:11;-0.50;99.90
13652;DHT22;6899;51.546;6.912;2023-04-06T02:50:38;-0.60;99.90
13652;DHT22;6899;51.546;6.912;2023-04-06T02:53:05;-0.60;99.90
13652;DHT22;6899;51.546;6.912;2023-04-06T02:55:32;-0.60;99.90
13652;DHT22;6899;51.546;6.912;2023-04-06T02:58:05;-0.60;99.90
13652;DHT22;6899;51.546;6.912;2023-04-06T03:00:31;-0.60;99.90
13652;DHT22;6899;51.546;6.912;2023-04-06T03:02:58;-0.70;99.90
13652;DHT22;6899;51.546;6.912;2023-04-06T03:05:27;-0.70;99.90
13652;DHT22;6899;51.546;6.912;2023-04-06T03:07:53;-0.70;99.90
13652;DHT22;6899;51.546;6.912;2023-04-06T03:10:20;-0.70;99.90
13652;DHT22;6899;51.546;6.912;2023-04-06T03:12:47;-0.70;99.90
13652;DHT22;6899;51.546;6.912;2023-04-06T03:15:14;-0.60;99.90
13652;DHT22;6899;51.546;6.912;2023-04-06T03:17:41;-0.70;99.90
13652;DHT22;6899;51.546;6.912;2023-04-06T03:20:08;-0.70;99.90
13652;DHT22;6899;51.546;6.912;2023-04-06T03:22:37;-0.70;99.90
13652;DHT22;6899;51.546;6.912;2023-04-06T03:25:04;-0.80;99.90
13652;DHT22;6899;51.546;6.912;2023-04-06T03:27:31;-0.80;99.90
13652;DHT22;6899;51.546;6.912;2023-04-06T03:29:58;-0.70;99.90
13652;DHT22;6899;51.546;6.912;2023-04-06T03:32:25;-0.70;99.90
13652;DHT22;6899;51.546;6.912;2023-04-06T03:34:52;-0.80;99.90
13652;DHT22;6899;51.546;6.912;2023-04-06T03:37:19;-0.80;99.90
13652;DHT22;6899;51.546;6.912;2023-04-06T03:39:47;-0.90;99.90
13652;DHT22;6899;51.546;6.912;2023-04-06T03:42:14;-0.90;99.90
13652;DHT22;6899;51.546;6.912;2023-04-06T03:44:41;-0.90;99.90
13652;DHT22;6899;51.546;6.912;2023-04-06T03:47:08;-0.90;99.90
13652;DHT22;6899;51.546;6.912;2023-04-06T03:49:34;-1.00;99.90
13652;DHT22;6899;51.546;6.912;2023-04-06T03:52:01;-1.00;99.90
13652;DHT22;6899;51.546;6.912;2023-04-06T03:54:28;-1.10;99.90
13652;DHT22;6899;51.546;6.912;2023-04-06T03:56:56;-1.10;99.90
13652;DHT22;6899;51.546;6.912;2023-04-06T03:59:23;-1.10;99.90
13652;DHT22;6899;51.546;6.912;2023-04-06T04:01:50;-1.10;99.90
13652;DHT22;6899;51.546;6.912;2023-04-06T04:04:17;-1.10;99.90
13652;DHT22;6899;51.546;6.912;2023-04-06T04:06:43;-1.00;99.90
13652;DHT22;6899;51.546;6.912;2023-04-06T04:09:10;-1.00;99.90
13652;DHT22;6899;51.546;6.912;2023-04-06T04:11:37;-1.00;99.90
13652;DHT22;6899;51.546;6.912;2023-04-06T04:14:05;-1.10;99.90
13652;DHT22;6899;51.546;6.912;2023-04-06T04:16:32;-1.20;99.90
13652;DHT22;6899;51.546;6.912;2023-04-06T04:18:59;-1.20;99.90
13652;DHT22;6899;51.546;6.912;2023-04-06T04:21:28;-1.10;99.90
13652;DHT22;6899;51.546;6.912;2023-04-06T04:23:55;-1.10;99.90
13652;DHT22;6899;51.546;6.912;2023-04-06T04:26:22;-1.00;99.90
13652;DHT22;6899;51.546;6.912;2023-04-06T04:28:49;-1.00;99.90
13652;DHT22;6899;51.546;6.912;2023-04-06T04:31:17;-0.90;99.90
13652;DHT22;6899;51.546;6.912;2023-04-06T04:33:45;-1.00;99.90
13652;DHT22;6899;51.546;6.912;2023-04-06T04:36:12;-1.10;99.90
13652;DHT22;6899;51.546;6.912;2023-04-06T04:38:39;-1.10;99.90
13652;DHT22;6899;51.546;6.912;2023-04-06T04:41:06;-1.30;99.90
13652;DHT22;6899;51.546;6.912;2023-04-06T04:43:33;-1.20;99.90
13652;DHT22;6899;51.546;6.912;2023-04-06T04:45:59;-1.20;99.90
13652;DHT22;6899;51.546;6.912;2023-04-06T04:48:28;-1.20;99.90
13652;DHT22;6899;51.546;6.912;2023-04-06T04:50:55;-1.10;99.90
13652;DHT22;6899;51.546;6.912;2023-04-06T04:53:22;-1.10;99.90
13652;DHT22;6899;51.546;6.912;2023-04-06T04:55:48;-1.20;99.90
13652;DHT22;6899;51.546;6.912;2023-04-06T04:58:15;-1.10;99.90
13652;DHT22;6899;51.546;6.912;2023-04-06T05:00:53;-1.20;99.90
13652;DHT22;6899;51.546;6.912;2023-04-06T05:03:31;-1.10;99.90
13652;DHT22;6899;51.546;6.912;2023-04-06T05:06:01;-1.10;99.90
13652;DHT22;6899;51.546;6.912;2023-04-06T05:08:28;-1.00;99.90
13652;DHT22;6899;51.546;6.912;2023-04-06T05:10:56;-0.90;99.90
13652;DHT22;6899;51.546;6.912;2023-04-06T05:13:23;-0.90;99.90
13652;DHT22;6899;51.546;6.912;2023-04-06T05:15:49;-0.80;99.90
13652;DHT22;6899;51.546;6.912;2023-04-06T05:18:16;-0.80;99.90
13652;DHT22;6899;51.546;6.912;2023-04-06T05:20:47;-0.70;99.90
13652;DHT22;6899;51.546;6.912;2023-04-06T05:23:21;-0.60;99.90
13652;DHT22;6899;51.546;6.912;2023-04-06T05:25:48;-0.60;99.90
13652;DHT22;6899;51.546;6.912;2023-04-06T05:28:15;-0.50;99.90
13652;DHT22;6899;51.546;6.912;2023-04-06T05:30:42;-0.50;99.90
13652;DHT22;6899;51.546;6.912;2023-04-06T05:33:09;-0.50;99.90
13652;DHT22;6899;51.546;6.912;2023-04-06T05:35:36;-0.40;99.90
13652;DHT22;6899;51.546;6.912;2023-04-06T05:38:08;-0.30;99.90
13652;DHT22;6899;51.546;6.912;2023-04-06T05:40:35;-0.10;99.90
13652;DHT22;6899;51.546;6.912;2023-04-06T05:43:02;0.00;99.90
13652;DHT22;6899;51.546;6.912;2023-04-06T05:45:29;0.10;99.90
13652;DHT22;6899;51.546;6.912;2023-04-06T05:47:56;0.20;99.90
13652;DHT22;6899;51.546;6.912;2023-04-06T05:50:23;0.30;99.90
13652;DHT22;6899;51.546;6.912;2023-04-06T05:52:50;0.40;99.90
13652;DHT22;6899;51.546;6.912;2023-04-06T05:55:19;0.50;99.90
13652;DHT22;6899;51.546;6.912;2023-04-06T05:57:46;0.70;99.90
13652;DHT22;6899;51.546;6.912;2023-04-06T06:00:14;1.40;99.90
13652;DHT22;6899;51.546;6.912;2023-04-06T06:02:41;2.70;99.90
13652;DHT22;6899;51.546;6.912;2023-04-06T06:05:08;3.90;99.90
13652;DHT22;6899;51.546;6.912;2023-04-06T06:07:36;4.70;99.90
13652;DHT22;6899;51.546;6.912;2023-04-06T06:10:03;5.40;99.90
13652;DHT22;6899;51.546;6.912;2023-04-06T06:12:34;6.00;99.90
13652;DHT22;6899;51.546;6.912;2023-04-06T06:15:01;6.50;99.90
13652;DHT22;6899;51.546;6.912;2023-04-06T06:17:28;7.00;99.90
13652;DHT22;6899;51.546;6.912;2023-04-06T06:19:55;7.40;99.90
13652;DHT22;6899;51.546;6.912;2023-04-06T06:22:22;7.90;99.90
13652;DHT22;6899;51.546;6.912;2023-04-06T06:24:52;8.20;99.90
13652;DHT22;6899;51.546;6.912;2023-04-06T06:27:22;8.60;99.90
13652;DHT22;6899;51.546;6.912;2023-04-06T06:29:50;8.70;99.90
13652;DHT22;6899;51.546;6.912;2023-04-06T06:32:17;8.90;99.90
13652;DHT22;6899;51.546;6.912;2023-04-06T06:34:44;9.10;99.90
13652;DHT22;6899;51.546;6.912;2023-04-06T06:37:11;9.50;99.90
13652;DHT22;6899;51.546;6.912;2023-04-06T06:39:38;10.10;99.90
13652;DHT22;6899;51.546;6.912;2023-04-06T06:42:08;10.40;99.90
13652;DHT22;6899;51.546;6.912;2023-04-06T06:44:35;10.90;99.90
13652;DHT22;6899;51.546;6.912;2023-04-06T06:47:03;11.20;99.90
13652;DHT22;6899;51.546;6.912;2023-04-06T06:49:30;11.60;99.90
13652;DHT22;6899;51.546;6.912;2023-04-06T06:51:57;11.90;99.90
13652;DHT22;6899;51.546;6.912;2023-04-06T06:54:27;12.20;99.90
13652;DHT22;6899;51.546;6.912;2023-04-06T06:56:54;12.50;99.90
13652;DHT22;6899;51.546;6.912;2023-04-06T06:59:21;12.60;99.90
13652;DHT22;6899;51.546;6.912;2023-04-06T07:01:49;12.70;99.90
13652;DHT22;6899;51.546;6.912;2023-04-06T07:04:17;12.70;99.90
13652;DHT22;6899;51.546;6.912;2023-04-06T07:06:44;12.90;99.90
13652;DHT22;6899;51.546;6.912;2023-04-06T07:09:11;12.30;99.90
13652;DHT22;6899;51.546;6.912;2023-04-06T07:11:38;12.20;99.90
13652;DHT22;6899;51.546;6.912;2023-04-06T07:14:05;12.50;99.90
13652;DHT22;6899;51.546;6.912;2023-04-06T07:16:32;13.10;99.90
13652;DHT22;6899;51.546;6.912;2023-04-06T07:18:59;13.50;99.90
13652;DHT22;6899;51.546;6.912;2023-04-06T07:21:27;13.30;95.80
13652;DHT22;6899;51.546;6.912;2023-04-06T07:23:54;13.20;99.40
13652;DHT22;6899;51.546;6.912;2023-04-06T07:26:46;13.60;97.80
13652;DHT22;6899;51.546;6.912;2023-04-06T07:29:13;13.50;90.50
13652;DHT22;6899;51.546;6.912;2023-04-06T07:31:46;13.30;71.50
13652;DHT22;6899;51.546;6.912;2023-04-06T07:34:14;13.00;70.90
13652;DHT22;6899;51.546;6.912;2023-04-06T07:36:42;13.40;88.60
13652;DHT22;6899;51.546;6.912;2023-04-06T07:39:10;13.30;93.90
13652;DHT22;6899;51.546;6.912;2023-04-06T07:41:37;13.30;63.10
13652;DHT22;6899;51.546;6.912;2023-04-06T07:44:04;13.50;72.70
13652;DHT22;6899;51.546;6.912;2023-04-06T07:46:31;14.20;78.10
13652;DHT22;6899;51.546;6.912;2023-04-06T07:49:00;13.60;59.90
13652;DHT22;6899;51.546;6.912;2023-04-06T07:51:27;14.30;62.10
13652;DHT22;6899;51.546;6.912;2023-04-06T07:53:55;15.20;64.30
13652;DHT22;6899;51.546;6.912;2023-04-06T07:56:22;15.10;57.40
13652;DHT22;6899;51.546;6.912;2023-04-06T07:58:50;15.10;56.10
13652;DHT22;6899;51.546;6.912;2023-04-06T08:01:17;14.90;56.00
13652;DHT22;6899;51.546;6.912;2023-04-06T08:03:44;14.30;51.90
13652;DHT22;6899;51.546;6.912;2023-04-06T08:06:11;13.80;54.00
13652;DHT22;6899;51.546;6.912;2023-04-06T08:08:41;13.30;56.50
13652;DHT22;6899;51.546;6.912;2023-04-06T08:11:09;13.00;55.60
13652;DHT22;6899;51.546;6.912;2023-04-06T08:13:36;12.60;54.20
13652;DHT22;6899;51.546;6.912;2023-04-06T08:16:07;12.50;56.20
13652;DHT22;6899;51.546;6.912;2023-04-06T08:18:36;12.50;57.70
13652;DHT22;6899;51.546;6.912;2023-04-06T08:21:03;12.70;55.50
13652;DHT22;6899;51.546;6.912;2023-04-06T08:23:45;12.70;54.90
13652;DHT22;6899;51.546;6.912;2023-04-06T08:26:13;12.60;56.20
13652;DHT22;6899;51.546;6.912;2023-04-06T08:28:40;13.10;56.30
13652;DHT22;6899;51.546;6.912;2023-04-06T08:31:07;13.50;56.70
13652;DHT22;6899;51.546;6.912;2023-04-06T08:33:34;13.60;55.60
13652;DHT22;6899;51.546;6.912;2023-04-06T08:36:08;13.70;53.30
13652;DHT22;6899;51.546;6.912;2023-04-06T08:38:35;13.50;54.10
13652;DHT22;6899;51.546;6.912;2023-04-06T08:41:07;13.30;54.10
13652;DHT22;6899;51.546;6.912;2023-04-06T08:43:39;13.50;53.90
13652;DHT22;6899;51.546;6.912;2023-04-06T08:46:08;13.50;53.20
13652;DHT22;6899;51.546;6.912;2023-04-06T08:48:38;13.30;52.60
13652;DHT22;6899;51.546;6.912;2023-04-06T08:51:05;13.50;53.40
13652;DHT22;6899;51.546;6.912;2023-04-06T08:53:32;14.00;53.30
13652;DHT22;6899;51.546;6.912;2023-04-06T08:55:59;14.30;52.10
13652;DHT22;6899;51.546;6.912;2023-04-06T08:58:31;14.60;51.30
13652;DHT22;6899;51.546;6.912;2023-04-06T09:01:00;14.70;50.40
13652;DHT22;6899;51.546;6.912;2023-04-06T09:03:31;14.00;48.90
13652;DHT22;6899;51.546;6.912;2023-04-06T09:06:13;14.30;52.20
13652;DHT22;6899;51.546;6.912;2023-04-06T09:08:41;15.20;50.40
13652;DHT22;6899;51.546;6.912;2023-04-06T09:11:08;14.90;49.30
13652;DHT22;6899;51.546;6.912;2023-04-06T09:13:44;15.00;48.10
13652;DHT22;6899;51.546;6.912;2023-04-06T09:16:13;15.20;48.10
13652;DHT22;6899;51.546;6.912;2023-04-06T09:18:40;15.40;47.60
13652;DHT22;6899;51.546;6.912;2023-04-06T09:21:08;15.30;45.90
13652;DHT22;6899;51.546;6.912;2023-04-06T09:23:35;15.30;46.20
13652;DHT22;6899;51.546;6.912;2023-04-06T09:26:06;15.70;46.40
13652;DHT22;6899;51.546;6.912;2023-04-06T09:28:44;15.60;45.10
13652;DHT22;6899;51.546;6.912;2023-04-06T09:31:13;15.10;46.80
13652;DHT22;6899;51.546;6.912;2023-04-06T09:33:42;15.10;46.20
13652;DHT22;6899;51.546;6.912;2023-04-06T09:36:10;15.30;46.80
13652;DHT22;6899;51.546;6.912;2023-04-06T09:38:38;15.50;45.50
13652;DHT22;6899;51.546;6.912;2023-04-06T09:41:05;15.60;46.10
13652;DHT22;6899;51.546;6.912;2023-04-06T09:43:32;15.60;45.50
13652;DHT22;6899;51.546;6.912;2023-04-06T09:46:01;15.80;46.20
13652;DHT22;6899;51.546;6.912;2023-04-06T09:48:34;15.80;45.40
13652;DHT22;6899;51.546;6.912;2023-04-06T09:51:03;15.50;45.70
13652;DHT22;6899;51.546;6.912;2023-04-06T09:53:31;15.30;44.90
13652;DHT22;6899;51.546;6.912;2023-04-06T09:56:03;15.30;46.00
13652;DHT22;6899;51.546;6.912;2023-04-06T09:58:37;15.10;47.20
13652;DHT22;6899;51.546;6.912;2023-04-06T10:01:09;15.50;47.80
13652;DHT22;6899;51.546;6.912;2023-04-06T10:03:45;16.00;47.60
13652;DHT22;6899;51.546;6.912;2023-04-06T10:06:21;16.10;45.60
13652;DHT22;6899;51.546;6.912;2023-04-06T10:08:52;15.70;45.00
13652;DHT22;6899;51.546;6.912;2023-04-06T10:11:20;15.50;46.10
13652;DHT22;6899;51.546;6.912;2023-04-06T10:13:48;16.00;48.00
13652;DHT22;6899;51.546;6.912;2023-04-06T10:16:15;15.90;45.50
13652;DHT22;6899;51.546;6.912;2023-04-06T10:18:47;15.70;46.20
13652;DHT22;6899;51.546;6.912;2023-04-06T10:21:20;15.90;47.30
13652;DHT22;6899;51.546;6.912;2023-04-06T10:23:54;16.10;46.50
13652;DHT22;6899;51.546;6.912;2023-04-06T10:26:22;15.90;45.40
13652;DHT22;6899;51.546;6.912;2023-04-06T10:28:49;16.10;45.10
13652;DHT22;6899;51.546;6.912;2023-04-06T10:31:24;16.40;45.40
13652;DHT22;6899;51.546;6.912;2023-04-06T10:33:56;16.40;44.80
13652;DHT22;6899;51.546;6.912;2023-04-06T10:36:25;16.40;46.70
13652;DHT22;6899;51.546;6.912;2023-04-06T10:38:56;17.00;46.60
13652;DHT22;6899;51.546;6.912;2023-04-06T10:41:24;17.70;45.50
13652;DHT22;6899;51.546;6.912;2023-04-06T10:43:58;17.20;42.30
13652;DHT22;6899;51.546;6.912;2023-04-06T10:46:28;16.80;43.80
13652;DHT22;6899;51.546;6.912;2023-04-06T10:48:57;16.50;44.10
13652;DHT22;6899;51.546;6.912;2023-04-06T10:51:26;16.90;44.50
13652;DHT22;6899;51.546;6.912;2023-04-06T10:53:54;17.00;44.10
13652;DHT22;6899;51.546;6.912;2023-04-06T10:56:23;17.20;42.50
13652;DHT22;6899;51.546;6.912;2023-04-06T10:58:53;17.30;44.10
13652;DHT22;6899;51.546;6.912;2023-04-06T11:01:22;17.60;42.80
13652;DHT22;6899;51.546;6.912;2023-04-06T11:03:50;17.60;43.10
13652;DHT22;6899;51.546;6.912;2023-04-06T11:06:19;17.10;43.20
13652;DHT22;6899;51.546;6.912;2023-04-06T11:08:46;17.40;43.70
13652;DHT22;6899;51.546;6.912;2023-04-06T11:11:15;17.50;42.70
13652;DHT22;6899;51.546;6.912;2023-04-06T11:13:45;17.10;43.40
13652;DHT22;6899;51.546;6.912;2023-04-06T11:16:16;16.90;45.00
13652;DHT22;6899;51.546;6.912;2023-04-06T11:18:50;16.80;43.80
13652;DHT22;6899;51.546;6.912;2023-04-06T11:21:19;16.70;44.90
13652;DHT22;6899;51.546;6.912;2023-04-06T11:23:46;16.40;44.20
13652;DHT22;6899;51.546;6.912;2023-04-06T11:26:14;16.70;46.40
13652;DHT22;6899;51.546;6.912;2023-04-06T11:28:41;17.00;44.40
13652;DHT22;6899;51.546;6.912;2023-04-06T11:31:09;16.80;45.20
13652;DHT22;6899;51.546;6.912;2023-04-06T11:33:37;16.40;45.20
13652;DHT22;6899;51.546;6.912;2023-04-06T11:36:05;16.40;46.00
13652;DHT22;6899;51.546;6.912;2023-04-06T11:38:34;16.60;45.00
13652;DHT22;6899;51.546;6.912;2023-04-06T11:41:05;16.80;45.40
13652;DHT22;6899;51.546;6.912;2023-04-06T11:43:32;17.00;45.20
13652;DHT22;6899;51.546;6.912;2023-04-06T11:46:03;16.90;45.80
13652;DHT22;6899;51.546;6.912;2023-04-06T11:48:30;16.70;44.20
13652;DHT22;6899;51.546;6.912;2023-04-06T11:50:58;16.30;45.10
13652;DHT22;6899;51.546;6.912;2023-04-06T11:53:27;15.90;45.60
13652;DHT22;6899;51.546;6.912;2023-04-06T11:56:01;16.10;46.60
13652;DHT22;6899;51.546;6.912;2023-04-06T11:58:29;16.00;45.50
13652;DHT22;6899;51.546;6.912;2023-04-06T12:01:03;16.00;45.80
13652;DHT22;6899;51.546;6.912;2023-04-06T12:03:30;15.80;46.00
13652;DHT22;6899;51.546;6.912;2023-04-06T12:05:57;15.50;45.50
13652;DHT22;6899;51.546;6.912;2023-04-06T12:08:24;15.60;46.50
13652;DHT22;6899;51.546;6.912;2023-04-06T12:10:52;15.60;47.20
13652;DHT22;6899;51.546;6.912;2023-04-06T12:13:20;15.60;47.30
13652;DHT22;6899;51.546;6.912;2023-04-06T12:15:47;15.40;47.70
13652;DHT22;6899;51.546;6.912;2023-04-06T12:18:15;15.50;48.30
13652;DHT22;6899;51.546;6.912;2023-04-06T12:20:42;15.40;48.50
13652;DHT22;6899;51.546;6.912;2023-04-06T12:23:09;15.40;49.70
13652;DHT22;6899;51.546;6.912;2023-04-06T12:25:36;15.20;49.30
13652;DHT22;6899;51.546;6.912;2023-04-06T12:28:06;15.50;49.60
13652;DHT22;6899;51.546;6.912;2023-04-06T12:30:34;15.80;50.10
13652;DHT22;6899;51.546;6.912;2023-04-06T12:33:01;16.10;49.80
13652;DHT22;6899;51.546;6.912;2023-04-06T12:35:28;15.80;48.90
13652;DHT22;6899;51.546;6.912;2023-04-06T12:37:55;15.30;50.20
13652;DHT22;6899;51.546;6.912;2023-04-06T12:40:22;15.30;50.20
13652;DHT22;6899;51.546;6.912;2023-04-06T12:42:49;15.00;51.60
13652;DHT22;6899;51.546;6.912;2023-04-06T12:45:16;14.80;52.50
13652;DHT22;6899;51.546;6.912;2023-04-06T12:47:44;14.90;51.40
13652;DHT22;6899;51.546;6.912;2023-04-06T12:50:11;15.10;51.50
13652;DHT22;6899;51.546;6.912;2023-04-06T12:52:38;15.10;50.80
13652;DHT22;6899;51.546;6.912;2023-04-06T12:55:06;14.90;50.90
13652;DHT22;6899;51.546;6.912;2023-04-06T12:57:33;14.80;51.20
13652;DHT22;6899;51.546;6.912;2023-04-06T13:00:00;14.70;51.70
13652;DHT22;6899;51.546;6.912;2023-04-06T13:02:28;14.90;52.00
13652;DHT22;6899;51.546;6.912;2023-04-06T13:04:56;15.10;51.70
13652;DHT22;6899;51.546;6.912;2023-04-06T13:07:23;14.80;52.50
13652;DHT22;6899;51.546;6.912;2023-04-06T13:09:52;14.60;52.30
13652;DHT22;6899;51.546;6.912;2023-04-06T13:12:19;14.90;52.70
13652;DHT22;6899;51.546;6.912;2023-04-06T13:14:46;14.90;52.10
13652;DHT22;6899;51.546;6.912;2023-04-06T13:17:16;14.90;52.10
13652;DHT22;6899;51.546;6.912;2023-04-06T13:19:43;14.80;53.10
13652;DHT22;6899;51.546;6.912;2023-04-06T13:22:11;14.60;52.90
13652;DHT22;6899;51.546;6.912;2023-04-06T13:24:47;14.80;53.90
13652;DHT22;6899;51.546;6.912;2023-04-06T13:27:14;14.90;53.40
13652;DHT22;6899;51.546;6.912;2023-04-06T13:29:41;14.90;53.40
13652;DHT22;6899;51.546;6.912;2023-04-06T13:32:08;15.30;53.60
13652;DHT22;6899;51.546;6.912;2023-04-06T13:34:35;15.20;53.00
13652;DHT22;6899;51.546;6.912;2023-04-06T13:37:02;15.00;53.80
13652;DHT22;6899;51.546;6.912;2023-04-06T13:39:31;15.10;54.00
13652;DHT22;6899;51.546;6.912;2023-04-06T13:41:58;15.00;53.20
13652;DHT22;6899;51.546;6.912;2023-04-06T13:44:25;14.50;54.10
13652;DHT22;6899;51.546;6.912;2023-04-06T13:46:52;14.20;55.80
13652;DHT22;6899;51.546;6.912;2023-04-06T13:49:19;13.70;56.80
13652;DHT22;6899;51.546;6.912;2023-04-06T13:51:46;13.50;58.20
13652;DHT22;6899;51.546;6.912;2023-04-06T13:54:12;13.50;58.60
13652;DHT22;6899;51.546;6.912;2023-04-06T13:56:41;13.80;60.00
13652;DHT22;6899;51.546;6.912;2023-04-06T13:59:08;13.70;58.40
13652;DHT22;6899;51.546;6.912;2023-04-06T14:01:35;13.50;58.40
13652;DHT22;6899;51.546;6.912;2023-04-06T14:04:01;13.10;59.30
13652;DHT22;6899;51.546;6.912;2023-04-06T14:06:29;13.00;61.20
13652;DHT22;6899;51.546;6.912;2023-04-06T14:08:56;13.20;62.60
13652;DHT22;6899;51.546;6.912;2023-04-06T14:11:22;13.20;61.20
13652;DHT22;6899;51.546;6.912;2023-04-06T14:13:57;13.30;60.40
13652;DHT22;6899;51.546;6.912;2023-04-06T14:16:24;13.10;61.20
13652;DHT22;6899;51.546;6.912;2023-04-06T14:18:51;12.90;61.00
13652;DHT22;6899;51.546;6.912;2023-04-06T14:21:18;12.70;62.60
13652;DHT22;6899;51.546;6.912;2023-04-06T14:23:45;12.70;63.90
13652;DHT22;6899;51.546;6.912;2023-04-06T14:26:12;12.70;64.20
13652;DHT22;6899;51.546;6.912;2023-04-06T14:28:41;12.90;65.50
13652;DHT22;6899;51.546;6.912;2023-04-06T14:31:13;12.50;66.40
13652;DHT22;6899;51.546;6.912;2023-04-06T14:33:41;12.20;70.70
13652;DHT22;6899;51.546;6.912;2023-04-06T14:36:09;12.20;78.60
13652;DHT22;6899;51.546;6.912;2023-04-06T14:38:36;12.10;86.40
13652;DHT22;6899;51.546;6.912;2023-04-06T14:41:04;12.00;90.00
13652;DHT22;6899;51.546;6.912;2023-04-06T14:43:32;12.10;95.00
13652;DHT22;6899;51.546;6.912;2023-04-06T14:46:02;12.10;95.30
13652;DHT22;6899;51.546;6.912;2023-04-06T14:48:30;12.10;96.60
13652;DHT22;6899;51.546;6.912;2023-04-06T14:50:57;12.20;98.00
13652;DHT22;6899;51.546;6.912;2023-04-06T14:53:25;12.40;98.20
13652;DHT22;6899;51.546;6.912;2023-04-06T14:55:52;12.50;99.90
13652;DHT22;6899;51.546;6.912;2023-04-06T14:58:19;12.70;99.90
13652;DHT22;6899;51.546;6.912;2023-04-06T15:00:46;12.40;99.90
13652;DHT22;6899;51.546;6.912;2023-04-06T15:03:14;12.00;99.90
13652;DHT22;6899;51.546;6.912;2023-04-06T15:05:42;12.00;99.90
13652;DHT22;6899;51.546;6.912;2023-04-06T15:08:09;12.00;99.90
13652;DHT22;6899;51.546;6.912;2023-04-06T15:10:40;12.30;99.90
13652;DHT22;6899;51.546;6.912;2023-04-06T15:13:07;12.70;99.90
13652;DHT22;6899;51.546;6.912;2023-04-06T15:15:34;12.70;99.90
13652;DHT22;6899;51.546;6.912;2023-04-06T15:18:01;12.50;99.90
13652;DHT22;6899;51.546;6.912;2023-04-06T15:20:27;12.30;99.90
13652;DHT22;6899;51.546;6.912;2023-04-06T15:22:56;12.20;99.90
13652;DHT22;6899;51.546;6.912;2023-04-06T15:25:23;12.20;99.90
13652;DHT22;6899;51.546;6.912;2023-04-06T15:27:50;12.00;99.90
13652;DHT22;6899;51.546;6.912;2023-04-06T15:30:17;11.90;99.90
13652;DHT22;6899;51.546;6.912;2023-04-06T15:32:52;11.90;99.90
13652;DHT22;6899;51.546;6.912;2023-04-06T15:35:20;11.70;99.90
13652;DHT22;6899;51.546;6.912;2023-04-06T15:37:47;11.50;99.90
13652;DHT22;6899;51.546;6.912;2023-04-06T20:32:32;6.70;99.90
